Clarcona, Florida
Current Conditions -  °F | °C
As of 9:39 PM on Tuesday 25 Nov 2014 (Local Time) from KORL Reporting Station
Light Rain Light Rain  
Wind Chill: 70°   Ceiling: 500
Heat Index: 70°   Visibility: 2mi
Dew Point: 70°   Wind: 5mph
Humidity: 100%   Direction: NA
Pressure: 29.93"   Gusts: NA
Location:  28.61°N, 81.5°W
Report Text: KORL 260239Z VRB04KT 2SM -RA BKN005 BKN024 OVC032 21/21 A2993 RMK RNAV RWY25 INFO H
Loading
Personal Weather Stations






























Interactive Weather Map New forecast layout! Learn more

10-Day Weather Forecast

Advertisements
Track Severe Weather on mobile